Flight Track Log - Related Links

Times and Time Zones

All times are in EDT time to prevent confusion due to time zone crossing. See the XOJ549 flight status page for this flight to view local times or setup timezone preferences in your user account.

Time Position Orientation Groundspeed Altitude Reporting Facility
EDT Latitude Longitude Course Direction KTS MPH feet Rate Location/Type
Thu 10:39:19 AM 27.7533 -97.4886 131° Southeast 173 199 1,300  Level Houston Center
Thu 10:39:56 AM 27.7336 -97.4631 131° Southeast 186 214 3,300 3,200 Climbing Houston Center
Thu 10:40:34 AM 27.7403 -97.4264 78° East 238 274 5,300 3,360 Climbing Houston Center
Thu 10:41:36 AM 27.8094 -97.4128 10° North 248 285 8,900 3,168 Climbing Houston Center
Thu 10:42:39 AM 27.8831 -97.3956 12° North 266 306 11,900 2,736 Climbing Houston Center
Thu 10:43:41 AM 27.9811 -97.3681 14° North 304 350 14,600 2,565 Climbing Houston Center
Thu 10:44:43 AM 28.0606 -97.3017 36° Northeast 343 395 17,200 2,516 Climbing Houston Center
Thu 10:45:45 AM 28.1375 -97.2311 39° Northeast 354 407 19,800 2,516 Climbing Houston Center
Thu 10:46:47 AM 28.2161 -97.1583 39° Northeast 362 417 22,400 2,371 Climbing Houston Center
Thu 10:47:49 AM 28.2969 -97.0856 38° Northeast 368 423 24,700 2,177 Climbing Houston Center
Thu 10:48:51 AM 28.3894 -96.9814 45° Northeast 389 448 26,900 1,984 Climbing Houston Center
Thu 10:49:53 AM 28.4478 -96.8747 58° Northeast 400 460 28,800 1,742 Climbing Houston Center
Thu 10:50:55 AM 28.5069 -96.7653 58° Northeast 404 465 30,500 1,680 Climbing Houston Center
Thu 10:51:58 AM 28.5678 -96.6503 59° Northeast 416 479 32,300 1,632 Climbing Houston Center
Thu 10:53:00 AM 28.6297 -96.5358 58° Northeast 424 488 33,900 1,645 Climbing Houston Center
Thu 10:54:02 AM 28.7039 -96.3964 59° Northeast 430 495 35,700 1,548 Climbing Houston Center
Thu 10:55:04 AM 28.7661 -96.2792 59° Northeast 433 498 37,100 1,306 Climbing Houston Center
Thu 10:56:06 AM 28.8281 -96.1625 59° Northeast 433 498 38,400 1,161 Climbing Houston Center
Thu 10:57:08 AM 28.8900 -96.0458 59° Northeast 434 499 39,500 1,258 Climbing Houston Center
Thu 10:58:10 AM 28.9489 -95.9294 60° Northeast 428 493 41,000 1,306 Climbing Houston Center
Thu 10:59:12 AM 29.0200 -95.7958 59° Northeast 414 476 42,200 871 Climbing Houston Center
Thu 11:00:14 AM 29.0778 -95.6844 59° Northeast 410 472 42,800 480 Climbing Houston Center
Thu 11:01:17 AM 29.1364 -95.5719 59° Northeast 413 475 43,200 336 Climbing Houston Center
Thu 11:02:19 AM 29.1961 -95.4569 59° Northeast 420 483 43,500 339 Climbing Houston Center
Thu 11:03:21 AM 29.2550 -95.3431 59° Northeast 418 481 43,900 435 Climbing Houston Center
Thu 11:04:23 AM 29.3267 -95.2050 59° Northeast 420 483 44,400 339 Climbing Houston Center
Thu 11:05:25 AM 29.3867 -95.0903 59° Northeast 420 483 44,600 290 Climbing Houston Center
Thu 11:06:27 AM 29.4417 -94.9819 60° Northeast 416 479 45,000 194 Climbing Houston Center
Thu 11:07:29 AM 29.5022 -94.8672 59° Northeast 419 482 45,000  Level Houston Center
Thu 11:08:31 AM 29.5731 -94.7269 60° Northeast 423 487 45,000  Level Houston Center
Thu 11:09:33 AM 29.6325 -94.6094 60° Northeast 427 491 45,000  Level Houston Center
Thu 11:10:36 AM 29.6928 -94.4922 59° Northeast 428 493 45,000  Level Houston Center
Thu 11:11:38 AM 29.7519 -94.3756 60° Northeast 424 488 45,000  Level Houston Center
Thu 11:12:40 AM 29.8131 -94.2564 59° Northeast 431 496 45,000  Level Houston Center
Thu 11:13:42 AM 29.8731 -94.1375 60° Northeast 430 495 45,000  Level Houston Center
Thu 11:14:44 AM 29.9450 -93.9944 60° Northeast 431 496 45,000  Level Houston Center
Thu 11:15:46 AM 30.0042 -93.8769 60° Northeast 427 491 45,000  Level Houston Center
Thu 11:16:48 AM 30.0625 -93.7586 60° Northeast 428 493 45,000  Level Houston Center
Thu 11:17:50 AM 30.1203 -93.6417 60° Northeast 423 487 45,000  Level Houston Center
Thu 11:18:52 AM 30.1767 -93.5231 61° Northeast 426 490 45,000  Level Houston Center
Thu 11:19:55 AM 30.2464 -93.3831 60° Northeast 428 493 45,000  Level Houston Center
Thu 11:20:57 AM 30.3044 -93.2683 60° Northeast 423 487 45,000  Level Houston Center
Thu 11:21:59 AM 30.3611 -93.1533 60° Northeast 419 482 45,000  Level Houston Center
Thu 11:23:01 AM 30.4175 -93.0381 60° Northeast 419 482 45,000  Level Houston Center
Thu 11:24:03 AM 30.4858 -92.8986 60° Northeast 417 480 45,000  Level Houston Center
Thu 11:25:05 AM 30.5431 -92.7811 60° Northeast 421 484 45,000  Level Houston Center
Thu 11:26:07 AM 30.5992 -92.6636 61° Northeast 422 486 45,000  Level Houston Center
Thu 11:27:10 AM 30.6569 -92.5422 61° Northeast 422 486 45,000  Level Houston Center
Thu 11:28:12 AM 30.7150 -92.4250 60° Northeast 424 488 45,000  Level Houston Center
Thu 11:29:14 AM 30.7825 -92.2828 61° Northeast 423 487 45,000  Level Houston Center
Thu 11:30:16 AM 30.8397 -92.1631 61° Northeast 425 489 45,000  Level Houston Center
Thu 11:31:18 AM 30.8975 -92.0422 61° Northeast 428 493 45,000  Level Houston Center
Thu 11:32:20 AM 30.9561 -91.9197 61° Northeast 433 498 45,000  Level Houston Center
Thu 11:33:22 AM 31.0144 -91.7983 61° Northeast 433 498 45,000  Level Houston Center
Thu 11:34:24 AM 31.0842 -91.6528 61° Northeast 431 496 45,000  Level Houston Center
Thu 11:35:26 AM 31.1422 -91.5308 61° Northeast 432 497 45,000  Level Houston Center
Thu 11:36:29 AM 31.1969 -91.4119 62° Northeast 431 496 45,000  Level Houston Center
Thu 11:37:31 AM 31.2561 -91.2872 61° Northeast 436 502 45,000  Level Houston Center
Thu 11:38:33 AM 31.3156 -91.1606 61° Northeast 436 502 45,000  Level Houston Center
Thu 11:39:35 AM 31.3839 -91.0144 61° Northeast 433 498 45,000  Level Houston Center
Thu 11:40:37 AM 31.4414 -90.8889 62° Northeast 435 501 45,000  Level Houston Center
Thu 11:41:39 AM 31.4983 -90.7653 62° Northeast 433 498 45,000  Level Houston Center
Thu 11:42:41 AM 31.5564 -90.6389 62° Northeast 436 502 45,000  Level Houston Center
Thu 11:43:44 AM 31.6144 -90.5131 62° Northeast 438 504 45,000  Level Houston Center
Thu 11:44:46 AM 31.6722 -90.3867 62° Northeast 439 505 45,000  Level Houston Center
Thu 11:45:48 AM 31.7303 -90.2592 62° Northeast 441 507 45,000  Level Houston Center
Thu 11:46:50 AM 31.8006 -90.1053 62° Northeast 443 510 45,000  Level Houston Center
Thu 11:47:52 AM 31.8586 -89.9764 62° Northeast 446 513 45,000  Level Houston Center
Thu 11:48:50 AM 31.9089 -89.8556 64° Northeast 435 501 45,000  Level Memphis Center
Thu 11:49:50 AM 31.9689 -89.7256 61° Northeast 435 501 45,000  Level Memphis Center
Thu 11:50:50 AM 32.0286 -89.5978 61° Northeast 435 501 45,000  Level Memphis Center
Thu 11:51:50 AM 32.0925 -89.4525 63° Northeast 435 501 45,000  Level Memphis Center
Thu 11:52:50 AM 32.1519 -89.3194 62° Northeast 441 507 45,000  Level Memphis Center
Thu 11:53:50 AM 32.2092 -89.1911 62° Northeast 447 514 45,000  Level Memphis Center
Thu 11:54:50 AM 32.2664 -89.0625 62° Northeast 447 514 45,000  Level Memphis Center
Thu 11:55:50 AM 32.3194 -88.9389 63° Northeast 435 501 45,000  Level Memphis Center
Thu 11:56:50 AM 32.3742 -88.8175 62° Northeast 424 488 45,000  Level Memphis Center
Thu 11:57:50 AM 32.4292 -88.7008 61° Northeast 412 474 45,000  Level Memphis Center
Thu 11:58:50 AM 32.4922 -88.5792 58° Northeast 417 480 45,000  Level Memphis Center
Thu 11:59:50 AM 32.5531 -88.4644 58° Northeast 417 480 45,000  Level Memphis Center
Thu 12:00:50 PM 32.6139 -88.3422 59° Northeast 422 486 45,000  Level Memphis Center
Thu 12:03:09 PM 32.7469 -88.0792 59° Northeast 420 483 45,000  Level Atlanta Center
Thu 12:04:09 PM 32.8200 -87.9517 56° Northeast 420 483 45,000  Level Atlanta Center
Thu 12:05:09 PM 32.8758 -87.8353 60° Northeast 415 478 45,000  Level Atlanta Center
Thu 12:06:09 PM 32.9400 -87.7119 58° Northeast 415 478 45,000  Level Atlanta Center
Thu 12:07:09 PM 33.0000 -87.5931 59° Northeast 415 478 45,000  Level Atlanta Center
Thu 12:08:09 PM 33.0489 -87.4836 62° Northeast 415 478 45,000  Level Atlanta Center
Thu 12:09:09 PM 33.1086 -87.3669 59° Northeast 415 478 45,000  Level Atlanta Center
Thu 12:10:09 PM 33.1681 -87.2475 59° Northeast 415 478 45,000  Level Atlanta Center
Thu 12:11:09 PM 33.2294 -87.1281 58° Northeast 415 478 45,000  Level Atlanta Center
Thu 12:12:09 PM 33.2864 -87.0258 56° Northeast 415 478 45,000  Level Atlanta Center
Thu 12:13:09 PM 33.3481 -86.8886 62° Northeast 415 478 45,000  Level Atlanta Center
Thu 12:14:09 PM 33.4072 -86.7686 59° Northeast 415 478 45,000  Level Atlanta Center
Thu 12:15:09 PM 33.4681 -86.6486 59° Northeast 415 478 45,000  Level Atlanta Center
Thu 12:16:09 PM 33.5269 -86.5283 60° Northeast 415 478 45,000  Level Atlanta Center
Thu 12:17:09 PM 33.5858 -86.4078 60° Northeast 415 478 45,000  Level Atlanta Center
Thu 12:18:09 PM 33.6444 -86.2872 60° Northeast 415 478 45,000  Level Atlanta Center
Thu 12:19:09 PM 33.7028 -86.1664 60° Northeast 415 478 45,000  Level Atlanta Center
Thu 12:20:09 PM 33.7633 -86.0478 58° Northeast 415 478 45,000  Level Atlanta Center
Thu 12:21:09 PM 33.8217 -85.9267 60° Northeast 415 478 45,000  Level Atlanta Center
Thu 12:22:09 PM 33.8903 -85.7981 57° Northeast 415 478 45,000  Level Atlanta Center
Thu 12:23:09 PM 33.9483 -85.6767 60° Northeast 408 470 45,000  Level Atlanta Center
Thu 12:24:09 PM 34.0061 -85.5547 60° Northeast 408 470 45,000  Level Atlanta Center
Thu 12:25:09 PM 34.0597 -85.4456 59° Northeast 414 476 45,000  Level Atlanta Center
Thu 12:26:09 PM 34.1175 -85.3211 61° Northeast 414 476 45,000  Level Atlanta Center
Thu 12:27:09 PM 34.1769 -85.1989 60° Northeast 414 476 45,000  Level Atlanta Center
Thu 12:28:09 PM 34.2386 -85.0742 59° Northeast 420 483 45,000  Level Atlanta Center
Thu 12:29:09 PM 34.2961 -84.9492 61° Northeast 420 483 45,000  Level Atlanta Center
Thu 12:30:09 PM 34.3594 -84.8089 61° Northeast 420 483 45,000  Level Atlanta Center
Thu 12:31:09 PM 34.4208 -84.6808 60° Northeast 420 483 45,000  Level Atlanta Center
Thu 12:32:09 PM 34.4797 -84.5528 61° Northeast 420 483 45,000  Level Atlanta Center
Thu 12:33:09 PM 34.5386 -84.4244 61° Northeast 430 495 45,000  Level Atlanta Center
Thu 12:34:09 PM 34.5956 -84.2986 61° Northeast 430 495 45,000  Level Atlanta Center
Thu 12:35:09 PM 34.6519 -84.1700 62° Northeast 430 495 45,000  Level Atlanta Center
Thu 12:36:09 PM 34.7106 -84.0464 60° Northeast 425 489 45,000  Level Atlanta Center
Thu 12:37:09 PM 34.7667 -83.9175 62° Northeast 425 489 45,000  Level Atlanta Center
Thu 12:38:09 PM 34.8231 -83.7983 60° Northeast 433 498 45,000  Level Atlanta Center
Thu 12:39:09 PM 34.8831 -83.6717 60° Northeast 433 498 45,000  Level Atlanta Center
Thu 12:40:09 PM 34.9389 -83.5447 62° Northeast 433 498 45,000  Level Atlanta Center
Thu 12:41:09 PM 34.9969 -83.4150 61° Northeast 428 493 45,000  Level Atlanta Center
Thu 12:42:09 PM 35.0506 -83.2981 61° Northeast 435 501 45,000  Level Atlanta Center
Thu 12:43:09 PM 35.1203 -83.1397 62° Northeast 441 507 45,000  Level Atlanta Center
Thu 12:44:09 PM 35.1797 -83.0097 61° Northeast 435 501 45,000  Level Atlanta Center
Thu 12:45:09 PM 35.2392 -82.8792 61° Northeast 441 507 45,000  Level Atlanta Center
Thu 12:46:09 PM 35.2983 -82.7408 62° Northeast 441 507 45,000  Level Atlanta Center
Thu 12:47:09 PM 35.3575 -82.6128 60° Northeast 441 507 45,000  Level Atlanta Center
Thu 12:48:09 PM 35.4161 -82.4767 62° Northeast 444 511 45,000  Level Atlanta Center
Thu 12:49:09 PM 35.4769 -82.3428 61° Northeast 444 511 45,000  Level Atlanta Center
Thu 12:50:09 PM 35.5356 -82.2039 63° Northeast 444 511 45,000  Level Atlanta Center
Thu 12:51:09 PM 35.5939 -82.0697 62° Northeast 444 511 45,000  Level Atlanta Center
Thu 12:52:09 PM 35.6542 -81.9328 62° Northeast 444 511 45,000  Level Atlanta Center
Thu 12:53:09 PM 35.7144 -81.7931 62° Northeast 449 517 45,000  Level Atlanta Center
Thu 12:54:09 PM 35.7744 -81.6533 62° Northeast 449 517 45,000  Level Atlanta Center
Thu 12:55:09 PM 35.8281 -81.5286 62° Northeast 457 526 45,000  Level Atlanta Center
Thu 12:56:09 PM 35.8900 -81.3883 61° Northeast 457 526 45,000  Level Atlanta Center
Thu 12:57:09 PM 35.9450 -81.2456 65° Northeast 457 526 45,000  Level Atlanta Center
Thu 12:58:09 PM 36.0103 -81.0919 62° Northeast 457 526 45,000  Level Atlanta Center
Thu 12:59:09 PM 36.0694 -80.9508 63° Northeast 457 526 45,000  Level Atlanta Center
Thu 01:00:09 PM 36.1264 -80.8100 63° Northeast 452 520 45,000  Level Atlanta Center
Thu 01:01:09 PM 36.1831 -80.6714 63° Northeast 452 520 45,000  Level Atlanta Center
Thu 01:02:49 PM 36.2792 -80.4386 63° Northeast 470 541 45,000  Level Washington Center
Thu 01:03:49 PM 36.3389 -80.2953 63° Northeast 464 534 45,000  Level Washington Center
Thu 01:04:50 PM 36.3833 -80.1742 65° Northeast 449 517 45,000  Level Washington Center
Thu 01:05:50 PM 36.4450 -80.0331 61° Northeast 449 517 45,000  Level Washington Center
Thu 01:06:51 PM 36.5003 -79.8917 64° Northeast 449 517 45,000  Level Washington Center
Thu 01:07:49 PM 36.5642 -79.7347 63° Northeast 449 517 45,000  Level Washington Center
Thu 01:08:49 PM 36.6192 -79.5953 64° Northeast 454 522 45,000  Level Washington Center
Thu 01:09:50 PM 36.6758 -79.4533 64° Northeast 454 522 45,000  Level Washington Center
Thu 01:10:50 PM 36.7328 -79.3083 64° Northeast 454 522 45,000  Level Washington Center
Thu 01:11:51 PM 36.7844 -79.1811 63° Northeast 454 522 45,000  Level Washington Center
Thu 01:12:49 PM 36.8408 -79.0383 64° Northeast 459 528 45,000  Level Washington Center
Thu 01:13:49 PM 36.8969 -78.8956 64° Northeast 454 522 45,000  Level Washington Center
Thu 01:14:50 PM 36.9597 -78.7369 64° Northeast 454 522 45,000  Level Washington Center
Thu 01:15:51 PM 37.0156 -78.5961 64° Northeast 454 522 45,000  Level Washington Center
Thu 01:16:49 PM 37.0733 -78.4553 63° Northeast 454 522 45,000  Level Washington Center
Thu 01:17:50 PM 37.1486 -78.3486 48° Northeast 448 516 45,000  Level Washington Center
Thu 01:18:51 PM 37.2328 -78.2292 48° Northeast 448 516 45,000  Level Washington Center
Thu 01:19:52 PM 37.3208 -78.1067 48° Northeast 441 507 45,000  Level Washington Center
Thu 01:20:49 PM 37.4047 -77.9842 49° Northeast 434 499 45,000  Level Washington Center
Thu 01:21:50 PM 37.4883 -77.8664 48° Northeast 439 505 45,000  Level Washington Center
Thu 01:22:51 PM 37.5719 -77.7483 48° Northeast 445 512 45,000  Level Washington Center
Thu 01:23:49 PM 37.6556 -77.6272 49° Northeast 450 518 45,000  Level Washington Center
Thu 01:24:50 PM 37.7367 -77.5086 49° Northeast 450 518 45,000  Level Washington Center
Thu 01:25:51 PM 37.8197 -77.3900 48° Northeast 450 518 45,000  Level Washington Center
Thu 01:26:49 PM 37.9050 -77.2656 49° Northeast 455 524 45,000  Level Washington Center
Thu 01:27:49 PM 37.9858 -77.1408 51° Northeast 455 524 45,000  Level Washington Center
Thu 01:28:50 PM 38.0689 -77.0214 49° Northeast 455 524 45,000  Level Washington Center
Thu 01:29:48 PM 38.1514 -76.8989 49° Northeast 455 524 45,000  Level Washington Center
Thu 01:30:49 PM 38.2361 -76.7761 49° Northeast 455 524 45,000  Level Washington Center
Thu 01:31:50 PM 38.3144 -76.6556 50° Northeast 450 518 45,000 -1,180 Level Washington Center
Thu 01:32:51 PM 38.3967 -76.5347 49° Northeast 450 518 42,600 -2,382 Descending Washington Center
Thu 01:34:01 PM 38.4792 -76.4058 51° Northeast 450 518 39,800 -2,862 Descending Washington Center
Thu 01:35:01 PM 38.5800 -76.2556 49° Northeast 456 525 36,400 -3,074 Descending Washington Center
Thu 01:36:02 PM 38.6642 -76.1286 50° Northeast 456 525 33,600 -2,754 Descending Washington Center
Thu 01:37:03 PM 38.7439 -76.0017 51° Northeast 456 525 30,800 -2,339 Descending Washington Center
Thu 01:38:00 PM 38.8150 -75.8633 57° Northeast 451 519 29,000 -915 Descending Washington Center
Thu 01:39:01 PM 38.8550 -75.7064 72° East 451 519 29,000  Level Washington Center
Thu 01:40:02 PM 38.8967 -75.5489 71° East 451 519 29,000  Level Washington Center
Thu 01:41:03 PM 38.9444 -75.3889 69° East 463 533 29,000  Level Washington Center
Thu 01:42:04 PM 39.0108 -75.2469 59° Northeast 468 539 29,000  Level Washington Center
Thu 01:43:01 PM 39.0789 -75.0997 59° Northeast 468 539 29,000  Level Washington Center
Thu 01:44:02 PM 39.1533 -74.9519 57° Northeast 481 554 29,000  Level Washington Center
Thu 01:45:03 PM 39.2233 -74.8039 59° Northeast 481 554 29,000 -168 Level Washington Center
Thu 01:47:01 PM 39.3619 -74.5142 58° Northeast 501 577 28,500 -1,213 Descending New York Center
Thu 01:48:01 PM 39.4253 -74.3642 61° Northeast 489 563 25,400 -2,926 Descending New York Center
Thu 01:49:02 PM 39.4878 -74.2222 60° Northeast 460 529 22,600 -2,213 Descending New York Center
Thu 01:50:03 PM 39.5539 -74.0989 55° Northeast 430 495 20,900 -1,881 Descending New York Center
Thu 01:51:00 PM 39.6172 -73.9967 51° Northeast 404 465 18,900 -2,017 Descending New York Center
Thu 01:52:02 PM 39.6869 -73.8892 50° Northeast 398 458 16,900 -1,869 Descending New York Center
Thu 01:53:02 PM 39.7644 -73.7928 44° Northeast 385 443 15,100 -966 Descending New York Center
Thu 01:54:00 PM 39.8483 -73.6908 43° Northeast 375 432 15,000 -51 Descending New York Center
Thu 01:55:00 PM 39.9278 -73.5914 44° Northeast 375 432 15,000  Level New York Center
Thu 01:56:00 PM 40.0050 -73.4969 43° Northeast 375 432 15,000 -67 Level New York Center
Thu 01:58:00 PM 40.1381 -73.3275 44° Northeast 390 449 14,800 -994 Descending Boston Center
Thu 01:59:01 PM 40.2264 -73.2119 45° Northeast 378 435 12,000 -2,479 Descending Boston Center
Thu 02:00:01 PM 40.2978 -73.1231 44° Northeast 366 421 9,800 -1,500 Descending Boston Center
Thu 02:01:01 PM 40.3608 -73.0392 45° Northeast 336 387 9,000 -800 Descending Boston Center
Thu 02:02:01 PM 40.4217 -72.9608 44° Northeast 317 365 8,200 -564 Descending Boston Center
Thu 02:04:23 PM 40.5833 -72.7667 42° Northeast 305 351 7,100 -594 Descending New York TRACON
Thu 02:05:23 PM 40.6333 -72.6833 52° Northeast 301 346 6,200 -1,400 Descending New York TRACON
Thu 02:06:23 PM 40.7000 -72.6167 37° Northeast 288 331 4,300 -1,600 Descending New York TRACON
Thu 02:07:23 PM 40.7500 -72.5333 52° Northeast 275 316 3,000 -650 Descending New York TRACON
Thu 02:08:23 PM 40.8000 -72.4667 45° Northeast 279 321 3,000 -450 Level New York TRACON
Thu 02:09:23 PM 40.8500 -72.4000 45° Northeast 249 287 2,100 -476 Descending New York TRACON
Thu 02:10:29 PM 40.9167 -72.3667 21° North 212 244 2,000 -50 Descending New York TRACON
Thu 02:11:23 PM 40.9500 -72.3500 21° North 167 192 2,000 -450 Level New York TRACON
Thu 02:12:29 PM 40.9667 -72.3000 66° East 129 148 1,100 -818 Descending New York TRACON

Login

Don't have an account? Register now (free) for customized features, flight alerts, and more!